Time;durP1;ratioP1;P1;durP2;ratioP2;P2;SDS_P1;SDS_P2;PMS_P1;PMS_P2;Temp;Humidity;BMP_temperature;BMP_pressure;BME280_temperature;BME280_humidity;BME280_pressure;Samples;Min_cycle;Max_cycle;Signal;HPM_P1;HPM_P2
2022/05/01 00:01:17;;;;;;;3.00;1.90;;;18.50;50.90;;;;;;4959770;28;20246;-91
2022/05/01 00:03:43;;;;;;;3.10;1.97;;;18.40;50.90;;;;;;4959164;28;20179;-91
2022/05/01 00:06:11;;;;;;;1.93;1.73;;;18.40;50.90;;;;;;4960594;28;20475;-91
2022/05/01 00:08:41;;;;;;;2.00;1.70;;;18.40;50.90;;;;;;4959928;28;20260;-91
2022/05/01 00:11:08;;;;;;;1.77;1.67;;;18.40;50.90;;;;;;4959767;28;20178;-91
2022/05/01 00:13:35;;;;;;;3.30;1.97;;;18.40;50.90;;;;;;4955737;28;20213;-91
2022/05/01 00:16:01;;;;;;;2.20;1.90;;;18.40;50.90;;;;;;4958360;28;20173;-91
2022/05/01 00:18:27;;;;;;;1.83;1.70;;;18.40;50.90;;;;;;4958972;28;20179;-91
2022/05/01 00:20:53;;;;;;;1.90;1.70;;;18.40;50.90;;;;;;4958954;28;20240;-91
2022/05/01 00:23:19;;;;;;;2.43;1.60;;;18.40;51.00;;;;;;4958485;28;20170;-91
2022/05/01 00:25:45;;;;;;;1.90;1.70;;;18.40;51.00;;;;;;4959486;28;20525;-91
2022/05/01 00:28:12;;;;;;;2.10;1.50;;;18.40;51.00;;;;;;4959185;28;20210;-91
2022/05/01 00:30:39;;;;;;;1.80;1.70;;;18.40;51.00;;;;;;4959064;28;20214;-91
2022/05/01 00:38:35;;;;;;;2.40;1.87;;;18.30;51.00;;;;;;4976645;28;20189;-91
2022/05/01 00:41:04;;;;;;;1.97;1.70;;;18.30;51.00;;;;;;4960442;28;20178;-91
2022/05/01 00:43:31;;;;;;;1.70;1.60;;;18.30;51.00;;;;;;4959634;28;20180;-91
2022/05/01 00:45:57;;;;;;;2.00;1.80;;;18.30;51.00;;;;;;4959401;28;20240;-91
2022/05/01 00:48:23;;;;;;;1.90;1.77;;;18.30;51.10;;;;;;4959261;28;20206;-91
2022/05/01 00:50:49;;;;;;;2.10;1.73;;;18.30;51.00;;;;;;4977212;28;20337;-91
2022/05/01 00:53:15;;;;;;;1.63;1.53;;;18.30;51.10;;;;;;4960357;28;20218;-92
2022/05/01 00:55:41;;;;;;;1.60;1.50;;;18.30;51.10;;;;;;4958272;28;20253;-91
2022/05/01 00:58:07;;;;;;;2.10;1.90;;;18.30;51.10;;;;;;4960068;28;20246;-91
2022/05/01 01:00:34;;;;;;;1.90;1.77;;;18.30;51.10;;;;;;4959281;28;20281;-91
2022/05/01 01:03:00;;;;;;;2.87;1.80;;;18.30;51.10;;;;;;4959633;28;20181;-92
2022/05/01 01:05:26;;;;;;;2.10;1.70;;;18.30;51.20;;;;;;4959402;28;20243;-92
2022/05/01 01:07:52;;;;;;;2.63;2.00;;;18.20;51.10;;;;;;4959542;28;20328;-92
2022/05/01 01:10:19;;;;;;;1.87;1.67;;;18.20;51.10;;;;;;4959870;28;20173;-91
2022/05/01 01:12:54;;;;;;;3.00;1.90;;;18.20;51.10;;;;;;4959851;28;20185;-91
2022/05/01 01:15:31;;;;;;;2.00;1.70;;;18.20;51.10;;;;;;4959977;28;20186;-92
2022/05/01 01:17:58;;;;;;;1.90;1.70;;;18.20;51.10;;;;;;4960185;28;20440;-91
2022/05/01 01:20:31;;;;;;;1.60;1.50;;;18.20;51.20;;;;;;4959350;28;20277;-92
2022/05/01 01:22:59;;;;;;;1.63;1.53;;;18.20;51.20;;;;;;4959173;28;20178;-92
2022/05/01 01:25:31;;;;;;;1.80;1.50;;;18.20;51.20;;;;;;4960272;28;20178;-91
2022/05/01 01:28:05;;;;;;;2.03;1.80;;;18.10;51.20;;;;;;4960082;28;20209;-92
2022/05/01 01:33:25;;;;;;;1.80;1.70;;;18.10;51.20;;;;;;4976576;28;20337;-92
2022/05/01 01:35:53;;;;;;;1.90;1.70;;;18.10;51.20;;;;;;4957191;28;20197;-92
2022/05/01 01:38:19;;;;;;;1.70;1.60;;;18.10;51.20;;;;;;4957595;28;20284;-91
2022/05/01 01:40:48;;;;;;;1.60;1.50;;;18.10;51.20;;;;;;4959963;28;20191;-92
2022/05/01 01:43:18;;;;;;;2.70;1.83;;;18.10;51.20;;;;;;4958988;28;20209;-92
2022/05/01 01:45:45;;;;;;;2.00;1.80;;;18.10;51.30;;;;;;4959390;28;20205;-91
2022/05/01 01:48:13;;;;;;;2.50;1.73;;;18.10;51.30;;;;;;4958698;28;20361;-91
2022/05/01 01:50:40;;;;;;;2.20;2.00;;;18.10;51.30;;;;;;4958792;28;20197;-92
2022/05/01 01:53:06;;;;;;;1.93;1.80;;;18.00;51.20;;;;;;4959637;28;20165;-92
2022/05/01 01:55:31;;;;;;;1.70;1.60;;;18.00;51.30;;;;;;4959562;28;20172;-92
2022/05/01 01:57:58;;;;;;;1.60;1.50;;;18.00;51.30;;;;;;4958677;28;20180;-91
2022/05/01 02:00:24;;;;;;;2.07;1.67;;;18.00;51.30;;;;;;4958069;28;20185;-91
2022/05/01 02:02:55;;;;;;;1.60;1.50;;;18.00;51.30;;;;;;4959118;28;20177;-91
2022/05/01 02:05:21;;;;;;;2.10;1.70;;;18.00;51.30;;;;;;4958687;28;20469;-91
2022/05/01 02:07:47;;;;;;;1.67;1.57;;;18.00;51.30;;;;;;4958663;28;20749;-91
2022/05/01 02:10:13;;;;;;;3.13;1.73;;;18.00;51.30;;;;;;4959527;28;20178;-91
2022/05/01 02:12:39;;;;;;;1.70;1.60;;;17.90;51.30;;;;;;4959071;28;20194;-91
2022/05/01 02:15:05;;;;;;;1.80;1.60;;;17.90;51.30;;;;;;4959078;28;20178;-91
2022/05/01 02:17:31;;;;;;;1.87;1.70;;;17.90;51.30;;;;;;4959357;28;20196;-91
2022/05/01 02:19:57;;;;;;;1.63;1.53;;;17.90;51.30;;;;;;4975872;28;20244;-92
2022/05/01 02:22:23;;;;;;;1.90;1.70;;;17.90;51.30;;;;;;4959243;28;20181;-91
2022/05/01 02:24:49;;;;;;;1.83;1.60;;;17.90;51.30;;;;;;4962493;28;20181;-91
2022/05/01 02:27:15;;;;;;;2.00;1.60;;;17.90;51.30;;;;;;4961604;28;20303;-91
2022/05/01 02:29:42;;;;;;;1.87;1.57;;;17.90;51.40;;;;;;4962109;28;20284;-91
2022/05/01 02:32:08;;;;;;;2.00;1.80;;;17.90;51.40;;;;;;4962929;28;20278;-92
2022/05/01 02:34:33;;;;;;;1.63;1.53;;;17.90;51.40;;;;;;4962866;28;20332;-92
2022/05/01 02:36:59;;;;;;;1.60;1.50;;;17.80;51.40;;;;;;4963072;28;20182;-92
2022/05/01 02:39:25;;;;;;;1.77;1.63;;;17.80;51.40;;;;;;4963895;28;20191;-92
2022/05/01 02:41:51;;;;;;;2.00;1.60;;;17.80;51.40;;;;;;4962758;28;20185;-92
2022/05/01 02:44:17;;;;;;;1.80;1.70;;;17.80;51.40;;;;;;4960669;28;20552;-92
2022/05/01 02:46:43;;;;;;;1.80;1.70;;;17.80;51.40;;;;;;4962778;28;20181;-92
2022/05/01 02:49:10;;;;;;;1.60;1.50;;;17.80;51.40;;;;;;4964052;28;20180;-92
2022/05/01 02:51:36;;;;;;;2.30;1.57;;;17.80;51.40;;;;;;4962992;28;20186;-92
2022/05/01 02:54:04;;;;;;;1.80;1.70;;;17.80;51.40;;;;;;4962956;28;20177;-92
2022/05/01 02:56:31;;;;;;;1.77;1.67;;;17.80;51.40;;;;;;4962587;28;20172;-92
2022/05/01 02:58:57;;;;;;;1.73;1.63;;;17.70;51.30;;;;;;4962693;28;20243;-92
2022/05/01 03:01:23;;;;;;;1.80;1.60;;;17.70;51.40;;;;;;4962774;28;20181;-92
2022/05/01 03:03:49;;;;;;;1.60;1.50;;;17.70;51.30;;;;;;4963324;28;20567;-92
2022/05/01 03:06:16;;;;;;;1.80;1.43;;;17.70;51.40;;;;;;4962383;28;20201;-92
2022/05/01 03:08:41;;;;;;;2.57;1.73;;;17.70;51.40;;;;;;4978562;28;20262;-92
2022/05/01 03:11:08;;;;;;;1.80;1.70;;;17.70;51.40;;;;;;4962039;28;20457;-92
2022/05/01 03:13:33;;;;;;;1.60;1.50;;;17.70;51.80;;;;;;4962678;28;20173;-92
2022/05/01 03:16:00;;;;;;;1.70;1.50;;;17.70;51.40;;;;;;4962910;28;20508;-91
2022/05/01 03:23:55;;;;;;;1.53;1.43;;;17.60;51.40;;;;;;4978485;28;20178;-91
2022/05/01 03:26:21;;;;;;;1.60;1.50;;;17.60;51.40;;;;;;4962662;28;20242;-91
2022/05/01 03:28:47;;;;;;;1.60;1.50;;;17.60;51.40;;;;;;4961523;28;20204;-92
2022/05/01 03:31:13;;;;;;;1.67;1.57;;;17.60;51.40;;;;;;4961959;28;20181;-92
2022/05/01 03:33:41;;;;;;;1.70;1.57;;;17.60;51.40;;;;;;4962968;28;20555;-92
2022/05/01 03:36:07;;;;;;;1.63;1.53;;;17.60;51.40;;;;;;4962655;28;20196;-91
2022/05/01 03:38:40;;;;;;;1.70;1.60;;;17.60;51.40;;;;;;4962680;28;20179;-91
2022/05/01 03:41:08;;;;;;;1.80;1.63;;;17.50;51.30;;;;;;4962305;28;20185;-91
2022/05/01 03:43:35;;;;;;;1.60;1.50;;;17.50;51.40;;;;;;4961062;28;20208;-91
2022/05/01 03:46:02;;;;;;;1.63;1.50;;;17.50;51.40;;;;;;4962080;28;20180;-91
2022/05/01 03:48:28;;;;;;;1.80;1.70;;;17.50;51.40;;;;;;4961541;28;20226;-92
2022/05/01 03:50:55;;;;;;;1.70;1.60;;;17.50;51.40;;;;;;4961031;28;20177;-91
2022/05/01 03:53:21;;;;;;;1.70;1.60;;;17.50;51.40;;;;;;4961820;28;20429;-92
2022/05/01 03:55:48;;;;;;;1.50;1.40;;;17.50;51.40;;;;;;4961606;28;20165;-91
2022/05/01 03:58:14;;;;;;;1.73;1.63;;;17.50;51.40;;;;;;4961661;28;20180;-92
2022/05/01 04:00:44;;;;;;;1.80;1.70;;;17.50;51.40;;;;;;4961382;28;20235;-92
2022/05/01 04:03:12;;;;;;;1.87;1.77;;;17.50;51.40;;;;;;4960998;28;20193;-91
2022/05/01 04:05:38;;;;;;;1.43;1.33;;;17.40;51.30;;;;;;4963050;28;20707;-92
2022/05/01 04:08:04;;;;;;;2.27;1.63;;;17.40;51.40;;;;;;4961606;28;20220;-91
2022/05/01 04:10:30;;;;;;;1.50;1.40;;;17.40;51.30;;;;;;4962190;28;20169;-91
2022/05/01 04:12:55;;;;;;;1.70;1.60;;;17.40;51.40;;;;;;4961431;28;20678;-91
2022/05/01 04:15:22;;;;;;;1.77;1.67;;;17.40;51.40;;;;;;4961752;28;20262;-91
2022/05/01 04:17:48;;;;;;;1.60;1.50;;;17.40;51.30;;;;;;4961798;28;20203;-91
2022/05/01 04:20:16;;;;;;;1.60;1.50;;;17.40;51.40;;;;;;4961506;28;20315;-91
2022/05/01 04:22:44;;;;;;;1.50;1.40;;;17.40;51.40;;;;;;4960986;28;20178;-92
2022/05/01 04:25:21;;;;;;;1.60;1.40;;;17.40;51.40;;;;;;4960644;28;20172;-91
2022/05/01 04:27:53;;;;;;;1.70;1.60;;;17.30;51.30;;;;;;4961432;28;20291;-91
2022/05/01 04:30:19;;;;;;;1.60;1.50;;;17.30;51.30;;;;;;4977766;28;20179;-92
2022/05/01 04:32:57;;;;;;;1.50;1.37;;;17.30;51.30;;;;;;4960717;28;20182;-91
2022/05/01 04:35:26;;;;;;;1.43;1.33;;;17.30;51.30;;;;;;4960846;28;20196;-91
2022/05/01 04:37:53;;;;;;;1.60;1.50;;;17.30;51.30;;;;;;4977590;28;20553;-91
2022/05/01 04:40:19;;;;;;;1.60;1.50;;;17.30;51.30;;;;;;4961051;28;20189;-91
2022/05/01 04:42:45;;;;;;;1.70;1.60;;;17.30;51.30;;;;;;4960816;28;20487;-91
2022/05/01 04:45:11;;;;;;;1.40;1.30;;;17.30;51.20;;;;;;4960101;28;20195;-92
2022/05/01 04:47:38;;;;;;;1.57;1.40;;;17.30;51.20;;;;;;4960451;28;20207;-92
2022/05/01 04:50:05;;;;;;;1.47;1.37;;;17.30;51.20;;;;;;4960654;28;20196;-91
2022/05/01 04:52:30;;;;;;;1.70;1.60;;;17.30;51.20;;;;;;4960163;28;20303;-91
2022/05/01 04:54:56;;;;;;;1.53;1.43;;;17.30;51.20;;;;;;4960378;28;20671;-91
2022/05/01 04:57:22;;;;;;;1.60;1.50;;;17.30;51.10;;;;;;4960530;28;20229;-91
2022/05/01 04:59:48;;;;;;;1.60;1.50;;;17.30;51.10;;;;;;4960165;28;20192;-91
2022/05/01 05:02:14;;;;;;;1.77;1.50;;;17.30;51.10;;;;;;4958881;28;20181;-91
2022/05/01 05:04:41;;;;;;;1.60;1.50;;;17.30;51.10;;;;;;4960247;28;20512;-91
2022/05/01 05:07:07;;;;;;;1.50;1.40;;;17.30;51.50;;;;;;4960368;28;20267;-91
2022/05/01 05:12:17;;;;;;;1.60;1.50;;;17.30;51.40;;;;;;4976389;28;20223;-91
2022/05/01 05:14:43;;;;;;;1.30;1.20;;;17.30;51.00;;;;;;4959778;28;20415;-92
2022/05/01 05:17:10;;;;;;;2.43;1.63;;;17.30;50.90;;;;;;4959685;28;20181;-91
2022/05/01 05:19:36;;;;;;;1.73;1.20;;;17.40;51.00;;;;;;4959660;28;20255;-91
2022/05/01 05:22:03;;;;;;;1.40;1.30;;;17.30;50.90;;;;;;4959759;28;20521;-91
2022/05/01 05:24:30;;;;;;;1.47;1.37;;;17.40;50.90;;;;;;4959377;28;20483;-91
2022/05/01 05:26:57;;;;;;;1.47;1.37;;;17.30;50.80;;;;;;4959464;28;20235;-91
2022/05/01 05:29:22;;;;;;;1.33;1.23;;;17.30;50.80;;;;;;4959350;28;20179;-91
2022/05/01 05:31:48;;;;;;;1.50;1.40;;;17.40;50.80;;;;;;4959125;28;20256;-91
2022/05/01 05:34:14;;;;;;;1.50;1.40;;;17.30;50.70;;;;;;4958185;28;20453;-91
2022/05/01 05:36:39;;;;;;;1.67;1.50;;;17.40;50.70;;;;;;4959130;28;20187;-91
2022/05/01 05:39:05;;;;;;;1.57;1.40;;;17.40;50.70;;;;;;4959174;28;20202;-91
2022/05/01 05:41:31;;;;;;;1.70;1.60;;;17.40;50.70;;;;;;4958123;28;20217;-91
2022/05/01 05:43:57;;;;;;;1.53;1.43;;;17.30;50.70;;;;;;4957326;28;20186;-91
2022/05/01 05:46:22;;;;;;;1.47;1.37;;;17.40;50.70;;;;;;4958027;28;20173;-90
2022/05/01 05:48:48;;;;;;;1.80;1.70;;;17.40;50.70;;;;;;4957424;28;20212;-90
2022/05/01 05:51:14;;;;;;;1.50;1.40;;;17.40;50.70;;;;;;4957805;28;20200;-91
2022/05/01 05:53:40;;;;;;;1.70;1.60;;;17.30;50.60;;;;;;4958203;28;20200;-91
2022/05/01 05:56:06;;;;;;;1.60;1.50;;;17.40;50.70;;;;;;4959768;28;20216;-91
2022/05/01 05:58:31;;;;;;;1.93;1.30;;;17.30;50.60;;;;;;4957639;28;20309;-91
2022/05/01 06:00:57;;;;;;;1.50;1.40;;;17.30;50.60;;;;;;4957872;28;20226;-91
2022/05/01 06:03:23;;;;;;;1.47;1.37;;;17.30;50.60;;;;;;4956976;28;20192;-91
2022/05/01 06:05:49;;;;;;;1.77;1.50;;;17.30;50.60;;;;;;4959626;28;20177;-91
2022/05/01 06:08:15;;;;;;;1.67;1.47;;;17.40;50.60;;;;;;4958194;28;20211;-91
2022/05/01 06:10:41;;;;;;;1.50;1.40;;;17.40;50.60;;;;;;4958162;28;20692;-91
2022/05/01 06:13:08;;;;;;;1.50;1.40;;;17.40;50.60;;;;;;4957969;28;20173;-91
2022/05/01 06:15:33;;;;;;;1.60;1.50;;;17.40;50.50;;;;;;4958254;28;20188;-91
2022/05/01 06:17:59;;;;;;;3.63;1.57;;;17.40;50.50;;;;;;4957437;28;20282;-91
2022/05/01 06:20:26;;;;;;;2.37;1.50;;;17.40;50.50;;;;;;4959317;28;20194;-92
2022/05/01 06:22:52;;;;;;;1.43;1.33;;;17.40;50.40;;;;;;4957592;28;20190;-91
2022/05/01 06:25:18;;;;;;;1.60;1.50;;;17.40;50.40;;;;;;4957705;28;20173;-91
2022/05/01 06:27:44;;;;;;;1.70;1.60;;;17.40;50.30;;;;;;4956739;28;20212;-92
2022/05/01 06:30:11;;;;;;;1.60;1.50;;;17.40;50.30;;;;;;4956209;28;20196;-92
2022/05/01 06:32:39;;;;;;;2.13;1.57;;;17.40;50.30;;;;;;4958211;28;20171;-92
2022/05/01 06:35:07;;;;;;;1.60;1.50;;;17.50;50.20;;;;;;4958378;28;20195;-92
2022/05/01 06:37:35;;;;;;;1.60;1.50;;;17.50;50.20;;;;;;4971147;28;20248;-92
2022/05/01 06:40:03;;;;;;;1.63;1.33;;;17.50;50.10;;;;;;4958047;28;20248;-92
2022/05/01 06:42:30;;;;;;;1.60;1.50;;;17.50;50.10;;;;;;4957685;28;20236;-92
2022/05/01 06:44:56;;;;;;;1.60;1.37;;;17.50;50.00;;;;;;4957664;28;20175;-92
2022/05/01 06:47:22;;;;;;;1.50;1.40;;;17.50;50.00;;;;;;4956992;28;20582;-92
2022/05/01 06:49:47;;;;;;;1.40;1.30;;;17.50;50.00;;;;;;4957805;28;20247;-92
2022/05/01 06:52:18;;;;;;;1.83;1.50;;;17.60;49.90;;;;;;4958714;28;20246;-91
2022/05/01 06:54:43;;;;;;;1.43;1.33;;;17.60;49.90;;;;;;4958509;28;20208;-91
2022/05/01 06:57:09;;;;;;;1.40;1.30;;;17.60;49.80;;;;;;4957910;28;20254;-91
2022/05/01 06:59:35;;;;;;;1.30;1.20;;;17.60;49.70;;;;;;4958183;28;20543;-91
2022/05/01 07:02:01;;;;;;;2.03;1.50;;;17.70;49.80;;;;;;4958202;28;20644;-91
2022/05/01 07:04:26;;;;;;;1.60;1.50;;;17.70;49.70;;;;;;4956631;28;20522;-91
2022/05/01 07:06:52;;;;;;;1.63;1.50;;;17.60;49.70;;;;;;4958190;28;20210;-91
2022/05/01 07:09:17;;;;;;;1.60;1.30;;;17.60;49.70;;;;;;4958707;28;20286;-91
2022/05/01 07:11:44;;;;;;;1.50;1.40;;;17.70;49.70;;;;;;4961029;28;20221;-91
2022/05/01 07:14:09;;;;;;;1.67;1.57;;;17.70;49.70;;;;;;4959992;28;20175;-91
2022/05/01 07:16:35;;;;;;;1.40;1.30;;;17.70;49.70;;;;;;4960529;28;20237;-91
2022/05/01 07:19:01;;;;;;;1.73;1.40;;;17.80;49.80;;;;;;4960398;28;20274;-91
2022/05/01 07:21:27;;;;;;;1.73;1.30;;;17.80;49.80;;;;;;4960957;28;20191;-91
2022/05/01 07:23:52;;;;;;;2.23;1.50;;;17.80;49.80;;;;;;4960626;28;20177;-91
2022/05/01 07:26:18;;;;;;;1.60;1.50;;;17.90;49.80;;;;;;4960586;28;20542;-91
2022/05/01 07:28:44;;;;;;;2.87;1.60;;;18.10;49.70;;;;;;4960832;28;20487;-92
2022/05/01 07:31:10;;;;;;;3.40;1.70;;;18.10;49.50;;;;;;4961421;28;20212;-92
2022/05/01 07:33:35;;;;;;;2.20;1.70;;;18.20;49.50;;;;;;4961284;28;20469;-92
2022/05/01 07:36:02;;;;;;;5.33;1.83;;;18.20;49.50;;;;;;4961265;28;20275;-91
2022/05/01 07:38:28;;;;;;;3.00;1.50;;;18.30;49.50;;;;;;4961062;28;20187;-91
2022/05/01 07:40:54;;;;;;;2.93;1.67;;;18.30;49.50;;;;;;4961056;28;20454;-91
2022/05/01 07:43:19;;;;;;;3.80;1.50;;;18.40;49.50;;;;;;4958875;28;20181;-92
2022/05/01 07:45:45;;;;;;;2.47;1.80;;;18.40;49.30;;;;;;4959351;28;20539;-92
2022/05/01 07:48:11;;;;;;;3.47;2.00;;;18.50;49.20;;;;;;4958804;28;20210;-92
2022/05/01 07:50:37;;;;;;;3.80;1.77;;;18.60;49.10;;;;;;4959779;28;20240;-92
2022/05/01 07:53:03;;;;;;;2.00;1.60;;;18.80;49.00;;;;;;4959445;28;20202;-91
2022/05/01 07:55:29;;;;;;;2.30;1.90;;;19.10;48.60;;;;;;4959729;28;20180;-92
2022/05/01 07:57:54;;;;;;;1.73;1.63;;;19.30;48.30;;;;;;4959584;28;20412;-91
2022/05/01 08:00:21;;;;;;;3.47;1.80;;;19.40;47.90;;;;;;4959451;28;20537;-91
2022/05/01 08:05:30;;;;;;;2.20;1.80;;;19.50;47.90;;;;;;4975503;28;20204;-93
2022/05/01 08:07:57;;;;;;;4.83;2.00;;;19.70;47.80;;;;;;4957146;28;20484;-92
2022/05/01 08:10:23;;;;;;;3.23;2.10;;;19.80;47.60;;;;;;4957681;28;20421;-93
2022/05/01 08:12:50;;;;;;;3.33;1.97;;;19.90;47.50;;;;;;4959097;28;20170;-92
2022/05/01 08:15:19;;;;;;;3.27;1.90;;;20.10;47.30;;;;;;4976517;28;20167;-93
2022/05/01 08:17:48;;;;;;;3.00;2.10;;;20.20;47.10;;;;;;4959179;28;20206;-93
2022/05/01 08:23:06;;;;;;;3.07;2.20;;;20.30;47.00;;;;;;4975874;28;20229;-92
2022/05/01 08:25:33;;;;;;;3.57;2.30;;;20.00;47.30;;;;;;4959467;28;20432;-93
2022/05/01 08:28:00;;;;;;;3.90;2.00;;;20.10;47.40;;;;;;4959450;28;20577;-93
2022/05/01 08:30:26;;;;;;;3.17;1.97;;;20.40;47.10;;;;;;4959948;28;20201;-93
2022/05/01 08:32:52;;;;;;;6.73;2.30;;;20.10;47.30;;;;;;4975771;28;20568;-93
2022/05/01 08:35:18;;;;;;;2.70;2.30;;;19.80;47.60;;;;;;4957903;28;20199;-92
2022/05/01 08:37:44;;;;;;;2.63;2.23;;;19.60;48.00;;;;;;4958617;28;20178;-91
2022/05/01 08:40:10;;;;;;;3.90;2.10;;;19.80;48.10;;;;;;4959408;28;20188;-92
2022/05/01 08:42:38;;;;;;;2.60;2.30;;;19.80;47.90;;;;;;4957850;28;20201;-91
2022/05/01 08:45:09;;;;;;;3.43;2.20;;;19.80;48.00;;;;;;4957809;28;20275;-91
2022/05/01 08:48:07;;;;;;;2.93;2.10;;;19.60;48.20;;;;;;4958919;28;20416;-91
2022/05/01 08:50:35;;;;;;;2.33;1.97;;;19.50;48.40;;;;;;4958298;28;20179;-91
2022/05/01 08:53:02;;;;;;;4.33;2.27;;;19.40;48.50;;;;;;4957975;28;20175;-91
2022/05/01 08:55:30;;;;;;;2.13;1.93;;;19.40;48.70;;;;;;4958091;28;20175;-91
2022/05/01 08:57:59;;;;;;;4.93;2.50;;;19.40;48.80;;;;;;4957770;28;20182;-91
2022/05/01 09:00:26;;;;;;;2.90;2.00;;;19.40;48.90;;;;;;4972744;28;20178;-91
2022/05/01 09:02:52;;;;;;;4.13;2.20;;;19.40;49.00;;;;;;4957140;28;20186;-91
2022/05/01 09:05:19;;;;;;;2.23;2.03;;;19.40;49.00;;;;;;4957353;28;20462;-91
2022/05/01 09:07:45;;;;;;;2.77;2.17;;;19.40;49.00;;;;;;4956920;28;20214;-92
2022/05/01 09:10:13;;;;;;;2.63;2.20;;;19.40;49.10;;;;;;4957643;28;20197;-91
2022/05/01 09:12:53;;;;;;;2.40;2.00;;;19.30;49.10;;;;;;4957194;28;20175;-92
2022/05/01 09:15:43;;;;;;;2.43;2.10;;;19.40;49.20;;;;;;4956138;28;20447;-91
2022/05/01 09:18:14;;;;;;;2.37;2.17;;;19.40;49.20;;;;;;4956484;28;20202;-92
2022/05/01 09:21:04;;;;;;;3.23;2.17;;;19.40;49.30;;;;;;4956988;28;20222;-92
2022/05/01 09:23:44;;;;;;;2.63;2.20;;;19.40;49.20;;;;;;4946082;28;20527;-92
2022/05/01 09:26:12;;;;;;;2.33;2.13;;;19.40;49.30;;;;;;4956359;28;20667;-92
2022/05/01 09:28:55;;;;;;;2.57;2.30;;;19.40;49.30;;;;;;4957105;28;20210;-92
2022/05/01 09:31:43;;;;;;;4.20;2.50;;;19.40;49.30;;;;;;4973572;28;20418;-91
2022/05/01 09:34:18;;;;;;;3.70;2.20;;;19.40;49.30;;;;;;4973209;28;20286;-92
2022/05/01 09:36:44;;;;;;;3.57;2.23;;;19.40;49.30;;;;;;4972753;28;20170;-91
2022/05/01 09:39:10;;;;;;;2.60;2.40;;;19.40;49.30;;;;;;4955316;28;20173;-92
2022/05/01 09:41:42;;;;;;;3.17;2.20;;;19.40;49.40;;;;;;4956365;28;20179;-92
2022/05/01 09:44:19;;;;;;;3.80;2.50;;;19.40;49.40;;;;;;4957527;28;20210;-91
2022/05/01 09:46:49;;;;;;;3.20;2.53;;;19.40;49.40;;;;;;4956811;28;20200;-91
2022/05/01 09:49:17;;;;;;;2.83;2.30;;;19.40;49.50;;;;;;4956054;28;20186;-92
2022/05/01 09:51:54;;;;;;;3.07;2.30;;;19.40;49.50;;;;;;4955442;28;20177;-92
2022/05/01 09:54:25;;;;;;;3.37;2.30;;;19.40;49.60;;;;;;4954652;28;20421;-91
2022/05/01 09:56:54;;;;;;;3.43;2.70;;;19.40;49.60;;;;;;4955702;28;20178;-91
2022/05/01 09:59:22;;;;;;;2.93;2.10;;;19.40;49.60;;;;;;4956623;28;20178;-91
2022/05/01 10:02:00;;;;;;;2.47;2.20;;;19.40;49.60;;;;;;4955286;28;20167;-92
2022/05/01 10:04:25;;;;;;;2.50;2.30;;;19.40;49.60;;;;;;4972807;28;20707;-91
2022/05/01 10:06:53;;;;;;;2.40;2.10;;;19.40;49.70;;;;;;4956647;28;20275;-92
2022/05/01 10:09:23;;;;;;;4.00;2.50;;;19.40;49.70;;;;;;4956964;28;20240;-91
2022/05/01 10:11:55;;;;;;;3.70;2.00;;;19.40;49.70;;;;;;4955389;28;20175;-92
2022/05/01 10:14:21;;;;;;;3.27;2.40;;;19.40;49.70;;;;;;4972032;28;20284;-92
2022/05/01 10:16:47;;;;;;;3.50;2.40;;;19.40;49.70;;;;;;4959156;28;20274;-94
2022/05/01 10:19:17;;;;;;;3.63;2.17;;;19.40;49.70;;;;;;4956782;28;20179;-93
2022/05/01 10:21:48;;;;;;;3.90;2.10;;;19.40;49.70;;;;;;4954783;28;20213;-93
2022/05/01 10:24:17;;;;;;;5.43;2.47;;;19.40;49.70;;;;;;4954695;28;20201;-93
2022/05/01 10:27:10;;;;;;;4.43;2.33;;;19.50;49.70;;;;;;4954254;28;20272;-93
2022/05/01 10:33:15;;;;;;;3.27;2.17;;;19.50;49.70;;;;;;4972536;28;20208;-92
2022/05/01 10:35:58;;;;;;;3.30;2.13;;;19.50;49.50;;;;;;4972876;28;20185;-93
2022/05/01 10:38:50;;;;;;;2.30;2.10;;;19.60;49.40;;;;;;4970276;28;20175;-93
2022/05/01 10:41:17;;;;;;;3.07;2.40;;;19.60;49.30;;;;;;4973121;28;20250;-93
2022/05/01 10:43:54;;;;;;;3.37;2.17;;;19.60;49.20;;;;;;4954858;28;20340;-93
2022/05/01 10:46:20;;;;;;;4.07;2.40;;;19.70;49.20;;;;;;4959101;28;20183;-93
2022/05/01 10:48:46;;;;;;;7.27;2.50;;;19.70;50.00;;;;;;4975508;28;20215;-93
2022/05/01 10:51:30;;;;;;;4.83;2.47;;;19.90;51.00;;;;;;4960694;28;20171;-92
2022/05/01 10:54:18;;;;;;;12.00;2.70;;;20.10;51.20;;;;;;4975418;28;20576;-92
2022/05/01 10:56:49;;;;;;;6.63;2.73;;;20.20;51.10;;;;;;4974187;28;20171;-92
2022/05/01 10:59:30;;;;;;;10.33;2.90;;;20.30;50.80;;;;;;4958720;28;20274;-92
2022/05/01 11:02:03;;;;;;;16.20;2.90;;;20.40;50.50;;;;;;4972398;28;20178;-92
2022/05/01 11:04:39;;;;;;;10.43;2.40;;;20.40;50.10;;;;;;4958331;28;20183;-91
2022/05/01 11:07:05;;;;;;;5.13;2.60;;;20.30;49.90;;;;;;4973963;28;20201;-92
2022/05/01 11:09:35;;;;;;;6.97;2.73;;;20.30;49.20;;;;;;4956264;28;20190;-92
2022/05/01 11:12:01;;;;;;;6.63;2.87;;;20.30;49.30;;;;;;4973703;28;20262;-92
2022/05/01 11:14:34;;;;;;;6.73;2.60;;;20.30;49.20;;;;;;4974733;28;20179;-92
2022/05/01 11:17:01;;;;;;;6.73;2.37;;;20.20;49.00;;;;;;4975029;28;20171;-92
2022/05/01 11:19:42;;;;;;;5.57;2.37;;;20.30;48.80;;;;;;4958549;28;20195;-92
2022/05/01 11:22:08;;;;;;;7.50;2.47;;;20.30;48.70;;;;;;4975519;28;20467;-91
2022/05/01 11:24:44;;;;;;;4.37;2.40;;;20.30;48.60;;;;;;4957298;28;20179;-92
2022/05/01 11:27:18;;;;;;;2.80;1.93;;;20.40;48.60;;;;;;4959501;28;20210;-91
2022/05/01 11:30:22;;;;;;;6.07;2.03;;;20.30;48.50;;;;;;4963259;28;20256;-92
2022/05/01 11:33:06;;;;;;;4.80;1.87;;;20.30;48.50;;;;;;4976519;28;20455;-91
2022/05/01 11:35:56;;;;;;;5.13;2.63;;;20.30;48.60;;;;;;4974975;28;20573;-91
2022/05/01 11:38:42;;;;;;;8.17;2.40;;;20.30;48.60;;;;;;4974544;28;20182;-91
2022/05/01 11:41:10;;;;;;;7.63;2.07;;;20.40;48.60;;;;;;4943174;28;20197;-91
2022/05/01 11:43:36;;;;;;;4.47;2.03;;;20.40;48.60;;;;;;4957469;28;20179;-91
2022/05/01 11:46:03;;;;;;;4.47;2.20;;;20.40;48.50;;;;;;4957161;28;20452;-91
2022/05/01 11:48:29;;;;;;;4.37;2.17;;;20.50;48.50;;;;;;4957750;28;20199;-91
2022/05/01 11:50:59;;;;;;;4.53;2.10;;;20.50;48.40;;;;;;4958456;28;20176;-91
2022/05/01 11:53:27;;;;;;;4.93;2.07;;;20.50;48.40;;;;;;4956964;28;20182;-91
2022/05/01 12:04:27;;;;;;;4.37;2.10;;;20.60;48.10;;;;;;4974466;28;20217;-93
2022/05/01 12:07:08;;;;;;;4.40;2.10;;;20.60;48.10;;;;;;4957664;28;20560;-93
2022/05/01 12:09:37;;;;;;;3.53;1.90;;;20.60;48.00;;;;;;4956359;28;20179;-92
2022/05/01 12:12:08;;;;;;;2.83;1.63;;;20.70;47.90;;;;;;4958056;28;20256;-93
2022/05/01 12:14:34;;;;;;;2.70;2.00;;;20.70;47.90;;;;;;4975140;28;20174;-93
2022/05/01 12:17:00;;;;;;;3.47;1.80;;;20.70;47.80;;;;;;4957575;28;20172;-93
2022/05/01 12:19:40;;;;;;;2.07;1.87;;;20.80;47.80;;;;;;4957723;28;20222;-93
2022/05/01 12:22:07;;;;;;;3.83;1.87;;;20.80;47.70;;;;;;4956445;28;20201;-94
2022/05/01 12:24:35;;;;;;;4.57;1.90;;;20.80;47.70;;;;;;4955500;28;20243;-92
2022/05/01 12:27:01;;;;;;;3.27;1.73;;;20.80;47.70;;;;;;4955756;28;20709;-92
2022/05/01 12:29:30;;;;;;;3.23;2.00;;;20.90;47.70;;;;;;4955773;28;20167;-92
2022/05/01 12:32:13;;;;;;;2.40;2.00;;;20.90;47.70;;;;;;4955424;28;20186;-93
2022/05/01 12:34:48;;;;;;;3.00;1.97;;;20.90;47.70;;;;;;4954921;28;20398;-92
2022/05/01 12:37:18;;;;;;;3.00;1.80;;;21.00;47.70;;;;;;4972974;28;20185;-92
2022/05/01 12:43:50;;;;;;;2.57;1.90;;;21.00;47.70;;;;;;4973070;28;20171;-92
2022/05/01 12:45:45;;;;;;;2.10;1.70;;;21.00;47.60;;;;;;4973339;28;20699;-92
2022/05/01 12:48:14;;;;;;;3.17;1.90;;;21.00;47.50;;;;;;4971662;28;20207;-91
2022/05/01 12:50:41;;;;;;;3.10;1.80;;;21.10;47.60;;;;;;4956315;28;20557;-92
2022/05/01 12:53:29;;;;;;;2.93;1.70;;;21.10;47.60;;;;;;4955472;28;20555;-92
2022/05/01 12:56:02;;;;;;;2.57;1.53;;;21.10;47.70;;;;;;4973163;28;20180;-92
2022/05/01 12:58:30;;;;;;;2.13;1.70;;;21.10;47.70;;;;;;4956777;28;20274;-92
2022/05/01 13:00:56;;;;;;;3.33;1.90;;;21.10;47.70;;;;;;4957075;28;20179;-93
2022/05/01 13:03:36;;;;;;;2.17;1.63;;;21.10;47.70;;;;;;4955556;28;20175;-93
2022/05/01 13:06:17;;;;;;;1.73;1.50;;;21.10;47.70;;;;;;4957071;28;20170;-93
2022/05/01 13:08:43;;;;;;;1.73;1.50;;;21.10;47.70;;;;;;4953882;28;20489;-93
2022/05/01 13:11:26;;;;;;;2.27;1.90;;;21.20;47.70;;;;;;4971596;28;20616;-92
2022/05/01 13:14:07;;;;;;;1.67;1.53;;;21.20;47.70;;;;;;4955753;28;20179;-93
2022/05/01 13:16:33;;;;;;;2.00;1.80;;;21.20;47.60;;;;;;4955505;28;20624;-92
2022/05/01 13:19:19;;;;;;;1.63;1.53;;;21.20;47.60;;;;;;4971192;28;20293;-92
2022/05/01 13:21:53;;;;;;;1.70;1.60;;;21.20;47.60;;;;;;4954999;28;20191;-92
2022/05/01 13:24:23;;;;;;;2.27;1.60;;;21.20;47.60;;;;;;4956914;28;20179;-92
2022/05/01 13:26:49;;;;;;;1.97;1.70;;;21.20;47.60;;;;;;4954581;28;20182;-92
2022/05/01 13:29:15;;;;;;;2.87;1.70;;;21.20;47.60;;;;;;4954528;28;20221;-92
2022/05/01 13:31:42;;;;;;;2.47;1.80;;;21.20;47.60;;;;;;4971056;28;20647;-92